Terminal Aerodrome Forecast
Issued by NWS Rapid City, SD

Home | Current Version | Previous Version | Text Only | Print | Product List | Glossary On
Versions: 1 2 3 4 5 6 7 8 9 10 11 12 13 14 15 16 17 18
493
FTUS43 KUNR 252102 AAB
TAFRAP
TAF AMD
KRAP 252102Z 2521/2618 32010KT P6SM SCT030 BKN050
      TEMPO 2521/2523 2SM -SHSN OVC025
     FM260100 28005KT P6SM OVC050
     FM260900 31005KT P6SM SCT250=

USA.gov is the U.S. government's official web portal to all federal, state and local government web resources and services.